sensor_id;sensor_type;location;lat;lon;timestamp;pressure;altitude;pressure_sealevel;temperature;humidity
71384;BME280;61466;52.166;5.004;2023-01-31T00:00:01;102547.66;;;6.13;63.54
71384;BME280;61466;52.166;5.004;2023-01-31T00:02:26;102556.84;;;6.10;63.66
71384;BME280;61466;52.166;5.004;2023-01-31T00:04:51;102561.09;;;6.05;63.84
71384;BME280;61466;52.166;5.004;2023-01-31T00:07:17;102557.59;;;6.04;63.89
71384;BME280;61466;52.166;5.004;2023-01-31T00:09:42;102543.09;;;6.00;63.48
71384;BME280;61466;52.166;5.004;2023-01-31T00:12:07;102544.25;;;5.98;63.81
71384;BME280;61466;52.166;5.004;2023-01-31T00:14:36;102549.78;;;5.96;63.57
71384;BME280;61466;52.166;5.004;2023-01-31T00:17:01;102553.25;;;5.97;63.77
71384;BME280;61466;52.166;5.004;2023-01-31T00:19:26;102539.91;;;5.90;63.86
71384;BME280;61466;52.166;5.004;2023-01-31T00:21:52;102536.22;;;5.91;63.87
71384;BME280;61466;52.166;5.004;2023-01-31T00:24:18;102521.31;;;5.90;63.78
71384;BME280;61466;52.166;5.004;2023-01-31T00:26:43;102508.38;;;5.87;64.10
71384;BME280;61466;52.166;5.004;2023-01-31T00:29:09;102502.44;;;5.85;64.06
71384;BME280;61466;52.166;5.004;2023-01-31T00:31:34;102495.31;;;5.85;64.05
71384;BME280;61466;52.166;5.004;2023-01-31T00:34:00;102487.72;;;5.82;64.08
71384;BME280;61466;52.166;5.004;2023-01-31T00:36:30;102491.19;;;5.83;63.91
71384;BME280;61466;52.166;5.004;2023-01-31T00:38:58;102481.59;;;5.82;63.84
71384;BME280;61466;52.166;5.004;2023-01-31T00:41:25;102466.06;;;5.79;64.02
71384;BME280;61466;52.166;5.004;2023-01-31T00:43:51;102468.91;;;5.77;63.83
71384;BME280;61466;52.166;5.004;2023-01-31T00:46:17;102458.28;;;5.77;63.96
71384;BME280;61466;52.166;5.004;2023-01-31T00:48:44;102463.13;;;5.73;64.14
71384;BME280;61466;52.166;5.004;2023-01-31T00:51:09;102460.47;;;5.73;64.29
71384;BME280;61466;52.166;5.004;2023-01-31T00:53:36;102453.31;;;5.74;64.12
71384;BME280;61466;52.166;5.004;2023-01-31T00:56:04;102454.53;;;5.71;64.71
71384;BME280;61466;52.166;5.004;2023-01-31T00:58:31;102449.22;;;5.71;64.32
71384;BME280;61466;52.166;5.004;2023-01-31T01:01:07;102458.22;;;5.70;64.34
71384;BME280;61466;52.166;5.004;2023-01-31T01:03:33;102450.03;;;5.72;64.21
71384;BME280;61466;52.166;5.004;2023-01-31T01:05:58;102457.81;;;5.73;64.35
71384;BME280;61466;52.166;5.004;2023-01-31T01:08:23;102455.34;;;5.72;64.21
71384;BME280;61466;52.166;5.004;2023-01-31T01:10:49;102458.22;;;5.70;64.30
71384;BME280;61466;52.166;5.004;2023-01-31T01:13:14;102459.03;;;5.71;64.42
71384;BME280;61466;52.166;5.004;2023-01-31T01:15:39;102463.53;;;5.70;64.37
71384;BME280;61466;52.166;5.004;2023-01-31T01:18:05;102447.59;;;5.70;64.46
71384;BME280;61466;52.166;5.004;2023-01-31T01:20:30;102457.66;;;5.75;64.79
71384;BME280;61466;52.166;5.004;2023-01-31T01:22:56;102464.00;;;5.81;64.83
71384;BME280;61466;52.166;5.004;2023-01-31T01:25:21;102457.69;;;5.82;64.80
71384;BME280;61466;52.166;5.004;2023-01-31T01:27:46;102459.13;;;5.84;64.58
71384;BME280;61466;52.166;5.004;2023-01-31T01:30:12;102460.56;;;5.87;64.25
71384;BME280;61466;52.166;5.004;2023-01-31T01:32:37;102455.28;;;5.87;64.36
71384;BME280;61466;52.166;5.004;2023-01-31T01:35:03;102455.91;;;5.89;64.30
71384;BME280;61466;52.166;5.004;2023-01-31T01:37:28;102454.28;;;5.88;64.82
71384;BME280;61466;52.166;5.004;2023-01-31T01:39:54;102453.06;;;5.90;64.53
71384;BME280;61466;52.166;5.004;2023-01-31T01:42:24;102447.94;;;5.89;64.90
71384;BME280;61466;52.166;5.004;2023-01-31T01:44:54;102457.00;;;5.94;65.03
71384;BME280;61466;52.166;5.004;2023-01-31T01:47:42;102458.88;;;6.01;64.91
71384;BME280;61466;52.166;5.004;2023-01-31T01:50:31;102472.78;;;6.03;64.98
71384;BME280;61466;52.166;5.004;2023-01-31T01:53:04;102473.44;;;6.05;65.03
71384;BME280;61466;52.166;5.004;2023-01-31T01:55:45;102473.22;;;6.06;64.83
71384;BME280;61466;52.166;5.004;2023-01-31T01:58:23;102467.91;;;6.06;65.17
71384;BME280;61466;52.166;5.004;2023-01-31T02:00:50;102464.25;;;6.07;65.08
71384;BME280;61466;52.166;5.004;2023-01-31T02:03:15;102463.47;;;6.13;65.36
71384;BME280;61466;52.166;5.004;2023-01-31T02:05:51;102458.16;;;6.13;65.07
71384;BME280;61466;52.166;5.004;2023-01-31T02:08:20;102458.56;;;6.17;65.32
71384;BME280;61466;52.166;5.004;2023-01-31T02:10:52;102467.59;;;6.23;65.36
71384;BME280;61466;52.166;5.004;2023-01-31T02:13:19;102459.22;;;6.26;65.14
71384;BME280;61466;52.166;5.004;2023-01-31T02:15:45;102458.03;;;6.28;65.39
71384;BME280;61466;52.166;5.004;2023-01-31T02:18:11;102459.28;;;6.32;65.24
71384;BME280;61466;52.166;5.004;2023-01-31T02:35:03;102450.97;;;6.49;65.77
71384;BME280;61466;52.166;5.004;2023-01-31T02:37:42;102449.38;;;6.54;66.00
71384;BME280;61466;52.166;5.004;2023-01-31T02:40:15;102446.53;;;6.56;65.97
71384;BME280;61466;52.166;5.004;2023-01-31T02:42:52;102441.81;;;6.58;65.62
71384;BME280;61466;52.166;5.004;2023-01-31T02:45:31;102430.97;;;6.60;66.01
71384;BME280;61466;52.166;5.004;2023-01-31T02:51:06;102432.84;;;6.66;65.92
71384;BME280;61466;52.166;5.004;2023-01-31T02:53:37;102428.97;;;6.68;65.65
71384;BME280;61466;52.166;5.004;2023-01-31T02:56:13;102433.91;;;6.71;65.98
71384;BME280;61466;52.166;5.004;2023-01-31T03:01:25;102425.91;;;6.71;65.76
71384;BME280;61466;52.166;5.004;2023-01-31T03:03:56;102426.09;;;6.70;66.00
71384;BME280;61466;52.166;5.004;2023-01-31T03:11:45;102420.38;;;6.73;65.86
71384;BME280;61466;52.166;5.004;2023-01-31T03:14:29;102413.81;;;6.69;66.62
71384;BME280;61466;52.166;5.004;2023-01-31T03:20:10;102425.31;;;6.76;66.58
71384;BME280;61466;52.166;5.004;2023-01-31T03:23:06;102415.50;;;6.76;66.70
71384;BME280;61466;52.166;5.004;2023-01-31T03:25:34;102414.69;;;6.76;66.19
71384;BME280;61466;52.166;5.004;2023-01-31T03:28:05;102408.94;;;6.79;66.09
71384;BME280;61466;52.166;5.004;2023-01-31T03:30:54;102418.34;;;6.82;66.73
71384;BME280;61466;52.166;5.004;2023-01-31T03:33:31;102406.91;;;6.81;66.26
71384;BME280;61466;52.166;5.004;2023-01-31T03:36:09;102388.91;;;6.83;66.29
71384;BME280;61466;52.166;5.004;2023-01-31T03:41:30;102381.97;;;6.89;66.41
71384;BME280;61466;52.166;5.004;2023-01-31T03:44:06;102382.97;;;6.88;66.70
71384;BME280;61466;52.166;5.004;2023-01-31T03:46:37;102367.25;;;6.86;66.99
71384;BME280;61466;52.166;5.004;2023-01-31T03:49:07;102381.16;;;6.88;66.40
71384;BME280;61466;52.166;5.004;2023-01-31T03:51:37;102382.78;;;6.89;66.13
71384;BME280;61466;52.166;5.004;2023-01-31T03:54:08;102377.47;;;6.89;66.45
71384;BME280;61466;52.166;5.004;2023-01-31T03:56:43;102368.88;;;6.87;66.62
71384;BME280;61466;52.166;5.004;2023-01-31T03:59:19;102377.88;;;6.86;66.41
71384;BME280;61466;52.166;5.004;2023-01-31T04:01:48;102377.25;;;6.84;66.41
71384;BME280;61466;52.166;5.004;2023-01-31T04:04:25;102365.78;;;6.84;66.48
71384;BME280;61466;52.166;5.004;2023-01-31T04:06:52;102363.53;;;6.81;66.81
71384;BME280;61466;52.166;5.004;2023-01-31T04:09:17;102370.09;;;6.78;66.51
71384;BME280;61466;52.166;5.004;2023-01-31T04:11:46;102372.13;;;6.76;66.87
71384;BME280;61466;52.166;5.004;2023-01-31T04:14:13;102374.78;;;6.76;67.24
71384;BME280;61466;52.166;5.004;2023-01-31T04:16:38;102371.31;;;6.75;67.05
71384;BME280;61466;52.166;5.004;2023-01-31T04:19:03;102350.03;;;6.75;67.38
71384;BME280;61466;52.166;5.004;2023-01-31T04:21:30;102357.41;;;6.80;67.63
71384;BME280;61466;52.166;5.004;2023-01-31T04:23:55;102339.59;;;6.81;67.75
71384;BME280;61466;52.166;5.004;2023-01-31T04:26:20;102344.72;;;6.82;68.19
71384;BME280;61466;52.166;5.004;2023-01-31T04:28:46;102345.13;;;6.86;67.68
71384;BME280;61466;52.166;5.004;2023-01-31T04:31:11;102340.22;;;6.89;67.83
71384;BME280;61466;52.166;5.004;2023-01-31T04:33:36;102343.69;;;6.96;67.77
71384;BME280;61466;52.166;5.004;2023-01-31T04:36:02;102345.97;;;7.00;68.19
71384;BME280;61466;52.166;5.004;2023-01-31T04:38:28;102336.94;;;7.01;68.01
71384;BME280;61466;52.166;5.004;2023-01-31T04:40:53;102350.25;;;7.01;67.81
71384;BME280;61466;52.166;5.004;2023-01-31T04:43:18;102331.84;;;7.06;68.07
71384;BME280;61466;52.166;5.004;2023-01-31T04:45:44;102323.44;;;7.09;68.43
71384;BME280;61466;52.166;5.004;2023-01-31T04:48:09;102324.06;;;7.11;68.35
71384;BME280;61466;52.166;5.004;2023-01-31T04:50:34;102323.88;;;7.12;67.95
71384;BME280;61466;52.166;5.004;2023-01-31T04:53:00;102321.41;;;7.11;68.50
71384;BME280;61466;52.166;5.004;2023-01-31T04:55:25;102324.06;;;7.11;67.90
71384;BME280;61466;52.166;5.004;2023-01-31T04:57:52;102326.72;;;7.17;68.43
71384;BME280;61466;52.166;5.004;2023-01-31T05:00:18;102327.53;;;7.18;68.04
71384;BME280;61466;52.166;5.004;2023-01-31T05:02:43;102327.94;;;7.22;68.44
71384;BME280;61466;52.166;5.004;2023-01-31T05:05:09;102332.03;;;7.24;68.57
71384;BME280;61466;52.166;5.004;2023-01-31T05:07:37;102326.72;;;7.24;68.78
71384;BME280;61466;52.166;5.004;2023-01-31T05:10:02;102319.78;;;7.23;68.76
71384;BME280;61466;52.166;5.004;2023-01-31T05:12:28;102321.81;;;7.21;68.85
71384;BME280;61466;52.166;5.004;2023-01-31T05:14:54;102317.72;;;7.25;68.78
71384;BME280;61466;52.166;5.004;2023-01-31T05:17:19;102313.22;;;7.26;68.63
71384;BME280;61466;52.166;5.004;2023-01-31T05:19:51;102319.34;;;7.26;68.62
71384;BME280;61466;52.166;5.004;2023-01-31T05:22:16;102306.66;;;7.22;69.10
71384;BME280;61466;52.166;5.004;2023-01-31T05:24:42;102305.03;;;7.27;68.98
71384;BME280;61466;52.166;5.004;2023-01-31T05:27:08;102307.06;;;7.25;69.19
71384;BME280;61466;52.166;5.004;2023-01-31T05:29:34;102307.06;;;7.32;68.85
71384;BME280;61466;52.166;5.004;2023-01-31T05:32:00;102299.28;;;7.30;69.03
71384;BME280;61466;52.166;5.004;2023-01-31T05:34:27;102315.66;;;7.34;68.92
71384;BME280;61466;52.166;5.004;2023-01-31T05:36:57;102302.56;;;7.32;68.69
71384;BME280;61466;52.166;5.004;2023-01-31T05:39:23;102300.91;;;7.38;68.95
71384;BME280;61466;52.166;5.004;2023-01-31T05:41:49;102305.81;;;7.41;68.87
71384;BME280;61466;52.166;5.004;2023-01-31T05:44:14;102305.00;;;7.41;69.06
71384;BME280;61466;52.166;5.004;2023-01-31T05:46:40;102298.88;;;7.40;68.96
71384;BME280;61466;52.166;5.004;2023-01-31T05:49:06;102299.69;;;7.41;69.00
71384;BME280;61466;52.166;5.004;2023-01-31T05:51:31;102303.16;;;7.41;69.14
71384;BME280;61466;52.166;5.004;2023-01-31T05:53:57;102289.03;;;7.41;69.15
71384;BME280;61466;52.166;5.004;2023-01-31T05:56:22;102305.00;;;7.47;69.09
71384;BME280;61466;52.166;5.004;2023-01-31T05:58:48;102302.94;;;7.49;69.12
71384;BME280;61466;52.166;5.004;2023-01-31T06:01:19;102306.41;;;7.50;69.40
71384;BME280;61466;52.166;5.004;2023-01-31T06:03:45;102303.13;;;7.54;69.24
71384;BME280;61466;52.166;5.004;2023-01-31T06:06:11;102291.06;;;7.52;69.27
71384;BME280;61466;52.166;5.004;2023-01-31T06:08:36;102275.50;;;7.49;69.66
71384;BME280;61466;52.166;5.004;2023-01-31T06:11:02;102273.44;;;7.51;69.33
71384;BME280;61466;52.166;5.004;2023-01-31T06:13:29;102278.34;;;7.54;69.12
71384;BME280;61466;52.166;5.004;2023-01-31T06:15:55;102274.88;;;7.53;69.00
71384;BME280;61466;52.166;5.004;2023-01-31T06:18:20;102287.97;;;7.55;69.32
71384;BME280;61466;52.166;5.004;2023-01-31T06:20:45;102281.81;;;7.54;69.10
71384;BME280;61466;52.166;5.004;2023-01-31T06:23:11;102281.63;;;7.56;69.00
71384;BME280;61466;52.166;5.004;2023-01-31T06:25:36;102284.50;;;7.54;69.36
71384;BME280;61466;52.166;5.004;2023-01-31T06:28:01;102286.34;;;7.54;69.15
71384;BME280;61466;52.166;5.004;2023-01-31T06:30:27;102283.06;;;7.52;69.38
71384;BME280;61466;52.166;5.004;2023-01-31T06:32:52;102278.34;;;7.54;69.12
71384;BME280;61466;52.166;5.004;2023-01-31T06:35:17;102279.38;;;7.53;69.43
71384;BME280;61466;52.166;5.004;2023-01-31T06:37:43;102275.69;;;7.54;68.97
71384;BME280;61466;52.166;5.004;2023-01-31T06:40:09;102268.91;;;7.58;69.51
71384;BME280;61466;52.166;5.004;2023-01-31T06:42:34;102259.88;;;7.59;69.20
71384;BME280;61466;52.166;5.004;2023-01-31T06:44:59;102245.97;;;7.57;69.25
71384;BME280;61466;52.166;5.004;2023-01-31T06:47:25;102249.22;;;7.59;69.06
71384;BME280;61466;52.166;5.004;2023-01-31T06:49:50;102250.47;;;7.56;69.16
71384;BME280;61466;52.166;5.004;2023-01-31T06:52:16;102258.47;;;7.56;69.48
71384;BME280;61466;52.166;5.004;2023-01-31T06:54:41;102253.75;;;7.58;69.46
71384;BME280;61466;52.166;5.004;2023-01-31T06:57:06;102243.91;;;7.59;69.22
71384;BME280;61466;52.166;5.004;2023-01-31T06:59:32;102244.53;;;7.61;69.42
71384;BME280;61466;52.166;5.004;2023-01-31T07:01:57;102235.72;;;7.61;69.29
71384;BME280;61466;52.166;5.004;2023-01-31T07:04:22;102240.22;;;7.60;69.53
71384;BME280;61466;52.166;5.004;2023-01-31T07:06:48;102228.53;;;7.61;69.81
71384;BME280;61466;52.166;5.004;2023-01-31T07:09:13;102219.53;;;7.62;69.43
71384;BME280;61466;52.166;5.004;2023-01-31T07:11:39;102232.84;;;7.62;69.75
71384;BME280;61466;52.166;5.004;2023-01-31T07:14:04;102232.66;;;7.64;69.36
71384;BME280;61466;52.166;5.004;2023-01-31T07:16:30;102214.44;;;7.54;69.24
71384;BME280;61466;52.166;5.004;2023-01-31T07:18:55;102237.34;;;7.68;69.78
71384;BME280;61466;52.166;5.004;2023-01-31T07:21:22;102234.25;;;7.71;69.44
71384;BME280;61466;52.166;5.004;2023-01-31T07:23:47;102220.75;;;7.66;69.33
71384;BME280;61466;52.166;5.004;2023-01-31T07:26:13;102237.72;;;7.72;69.64
71384;BME280;61466;52.166;5.004;2023-01-31T07:28:38;102219.47;;;7.75;69.69
71384;BME280;61466;52.166;5.004;2023-01-31T07:31:10;102230.75;;;7.77;69.77
71384;BME280;61466;52.166;5.004;2023-01-31T07:33:37;102226.84;;;7.80;69.90
71384;BME280;61466;52.166;5.004;2023-01-31T07:36:04;102224.97;;;7.80;69.88
71384;BME280;61466;52.166;5.004;2023-01-31T07:38:30;102228.25;;;7.83;69.66
71384;BME280;61466;52.166;5.004;2023-01-31T07:40:59;102214.72;;;7.84;69.58
71384;BME280;61466;52.166;5.004;2023-01-31T07:43:26;102214.47;;;7.92;69.72
71384;BME280;61466;52.166;5.004;2023-01-31T07:45:51;102213.03;;;7.96;69.61
71384;BME280;61466;52.166;5.004;2023-01-31T07:48:16;102202.16;;;7.98;69.62
71384;BME280;61466;52.166;5.004;2023-01-31T07:50:50;102206.44;;;7.99;69.55
71384;BME280;61466;52.166;5.004;2023-01-31T07:53:16;102202.53;;;8.02;69.42
71384;BME280;61466;52.166;5.004;2023-01-31T07:55:42;102193.91;;;8.06;69.76
71384;BME280;61466;52.166;5.004;2023-01-31T07:58:12;102178.50;;;8.08;69.57
71384;BME280;61466;52.166;5.004;2023-01-31T08:00:38;102176.69;;;8.09;69.45
71384;BME280;61466;52.166;5.004;2023-01-31T08:03:24;102176.03;;;8.13;69.69
71384;BME280;61466;52.166;5.004;2023-01-31T08:05:57;102171.50;;;8.14;69.54
71384;BME280;61466;52.166;5.004;2023-01-31T08:08:22;102155.56;;;8.07;69.39
71384;BME280;61466;52.166;5.004;2023-01-31T08:10:47;102171.06;;;8.17;69.50
71384;BME280;61466;52.166;5.004;2023-01-31T08:13:13;102158.13;;;8.20;69.26
71384;BME280;61466;52.166;5.004;2023-01-31T08:15:38;102160.00;;;8.20;69.13
71384;BME280;61466;52.166;5.004;2023-01-31T08:18:04;102157.09;;;8.21;69.12
71384;BME280;61466;52.166;5.004;2023-01-31T08:20:29;102152.22;;;8.18;68.94
71384;BME280;61466;52.166;5.004;2023-01-31T08:22:55;102150.13;;;8.20;68.83
71384;BME280;61466;52.166;5.004;2023-01-31T08:25:22;102140.53;;;8.19;68.78
71384;BME280;61466;52.166;5.004;2023-01-31T08:27:47;102150.28;;;8.26;68.62
71384;BME280;61466;52.166;5.004;2023-01-31T08:30:13;102144.75;;;8.27;69.21
71384;BME280;61466;52.166;5.004;2023-01-31T08:32:38;102132.03;;;8.29;68.97
71384;BME280;61466;52.166;5.004;2023-01-31T08:35:04;102153.16;;;8.31;69.24
71384;BME280;61466;52.166;5.004;2023-01-31T08:37:29;102137.91;;;8.38;68.94
71384;BME280;61466;52.166;5.004;2023-01-31T08:39:56;102151.25;;;8.38;68.76
71384;BME280;61466;52.166;5.004;2023-01-31T08:42:22;102143.03;;;8.39;69.02
71384;BME280;61466;52.166;5.004;2023-01-31T08:44:47;102152.47;;;8.42;68.90
71384;BME280;61466;52.166;5.004;2023-01-31T08:47:12;102152.03;;;8.45;68.60
71384;BME280;61466;52.166;5.004;2023-01-31T08:49:38;102169.22;;;8.49;68.91
71384;BME280;61466;52.166;5.004;2023-01-31T08:52:04;102154.06;;;8.50;68.89
71384;BME280;61466;52.166;5.004;2023-01-31T08:54:30;102154.81;;;8.57;68.93
71384;BME280;61466;52.166;5.004;2023-01-31T08:56:55;102166.22;;;8.64;68.87
71384;BME280;61466;52.166;5.004;2023-01-31T08:59:20;102163.13;;;8.67;68.78
71384;BME280;61466;52.166;5.004;2023-01-31T09:01:46;102166.16;;;8.71;68.91
71384;BME280;61466;52.166;5.004;2023-01-31T09:04:12;102165.75;;;8.74;68.66
71384;BME280;61466;52.166;5.004;2023-01-31T09:06:37;102143.81;;;8.72;68.75
71384;BME280;61466;52.166;5.004;2023-01-31T09:09:03;102147.44;;;8.77;68.40
71384;BME280;61466;52.166;5.004;2023-01-31T09:11:28;102152.13;;;8.82;68.46
71384;BME280;61466;52.166;5.004;2023-01-31T09:13:54;102136.72;;;8.84;68.22
71384;BME280;61466;52.166;5.004;2023-01-31T09:16:20;102142.63;;;8.86;68.53
71384;BME280;61466;52.166;5.004;2023-01-31T09:18:45;102149.38;;;8.89;68.30
71384;BME280;61466;52.166;5.004;2023-01-31T09:21:14;102147.06;;;8.92;68.30
71384;BME280;61466;52.166;5.004;2023-01-31T09:23:40;102135.50;;;8.98;68.13
71384;BME280;61466;52.166;5.004;2023-01-31T09:26:05;102122.78;;;9.00;67.93
71384;BME280;61466;52.166;5.004;2023-01-31T09:28:31;102127.44;;;9.05;67.89
71384;BME280;61466;52.166;5.004;2023-01-31T09:31:05;102119.00;;;9.08;67.87
71384;BME280;61466;52.166;5.004;2023-01-31T09:33:32;102111.78;;;9.09;68.24
71384;BME280;61466;52.166;5.004;2023-01-31T09:36:00;102116.47;;;9.13;67.88
71384;BME280;61466;52.166;5.004;2023-01-31T09:38:26;102127.81;;;9.09;68.18
71384;BME280;61466;52.166;5.004;2023-01-31T09:40:52;102126.75;;;9.10;68.28
71384;BME280;61466;52.166;5.004;2023-01-31T09:43:23;102123.88;;;9.11;68.17
71384;BME280;61466;52.166;5.004;2023-01-31T09:45:55;102120.41;;;9.11;68.05
71384;BME280;61466;52.166;5.004;2023-01-31T09:48:27;102132.06;;;9.16;68.21
71384;BME280;61466;52.166;5.004;2023-01-31T09:50:55;102120.53;;;9.16;68.23
71384;BME280;61466;52.166;5.004;2023-01-31T09:53:27;102113.88;;;9.25;67.95
71384;BME280;61466;52.166;5.004;2023-01-31T09:58:58;102110.81;;;9.21;68.17
71384;BME280;61466;52.166;5.004;2023-01-31T10:04:25;102132.31;;;9.45;67.90
71384;BME280;61466;52.166;5.004;2023-01-31T10:09:36;102110.63;;;9.53;67.70
71384;BME280;61466;52.166;5.004;2023-01-31T10:12:18;102109.16;;;9.57;67.47
71384;BME280;61466;52.166;5.004;2023-01-31T10:15:10;102114.25;;;9.59;67.49
71384;BME280;61466;52.166;5.004;2023-01-31T10:17:49;102101.94;;;9.58;67.65
71384;BME280;61466;52.166;5.004;2023-01-31T10:25:37;102117.47;;;9.79;67.35
71384;BME280;61466;52.166;5.004;2023-01-31T10:28:05;102120.25;;;9.84;67.19
71384;BME280;61466;52.166;5.004;2023-01-31T10:30:42;102111.44;;;9.84;67.06
71384;BME280;61466;52.166;5.004;2023-01-31T10:35:47;102120.41;;;9.90;67.21
71384;BME280;61466;52.166;5.004;2023-01-31T10:44:46;102092.19;;;10.05;66.99
71384;BME280;61466;52.166;5.004;2023-01-31T10:47:16;102097.31;;;10.07;66.88
71384;BME280;61466;52.166;5.004;2023-01-31T10:49:49;102096.84;;;10.10;66.80
71384;BME280;61466;52.166;5.004;2023-01-31T10:55:12;102101.28;;;10.16;66.85
71384;BME280;61466;52.166;5.004;2023-01-31T10:57:44;102101.84;;;10.18;66.94
71384;BME280;61466;52.166;5.004;2023-01-31T11:00:20;102097.06;;;10.09;67.27
71384;BME280;61466;52.166;5.004;2023-01-31T11:02:47;102109.19;;;10.11;67.14
71384;BME280;61466;52.166;5.004;2023-01-31T11:05:22;102102.66;;;10.07;67.44
71384;BME280;61466;52.166;5.004;2023-01-31T11:07:48;102111.00;;;10.11;67.29
71384;BME280;61466;52.166;5.004;2023-01-31T11:10:22;102109.28;;;10.04;67.56
71384;BME280;61466;52.166;5.004;2023-01-31T11:15:19;102110.31;;;10.03;67.76
71384;BME280;61466;52.166;5.004;2023-01-31T11:17:47;102104.75;;;10.05;67.83
71384;BME280;61466;52.166;5.004;2023-01-31T11:20:24;102105.19;;;10.02;67.84
71384;BME280;61466;52.166;5.004;2023-01-31T11:22:52;102101.72;;;10.01;67.89
71384;BME280;61466;52.166;5.004;2023-01-31T11:25:21;102107.06;;;10.01;68.21
71384;BME280;61466;52.166;5.004;2023-01-31T11:27:48;102106.59;;;10.04;68.10
71384;BME280;61466;52.166;5.004;2023-01-31T11:30:32;102098.59;;;10.04;68.02
71384;BME280;61466;52.166;5.004;2023-01-31T11:32:59;102096.47;;;10.07;67.84
71384;BME280;61466;52.166;5.004;2023-01-31T11:37:57;102083.69;;;10.09;67.91
71384;BME280;61466;52.166;5.004;2023-01-31T11:40:34;102080.22;;;10.08;68.11
71384;BME280;61466;52.166;5.004;2023-01-31T11:43:23;102095.81;;;10.11;67.87
71384;BME280;61466;52.166;5.004;2023-01-31T11:45:59;102093.78;;;10.07;67.95
71384;BME280;61466;52.166;5.004;2023-01-31T11:48:29;102088.81;;;10.10;67.83
71384;BME280;61466;52.166;5.004;2023-01-31T11:50:59;102083.03;;;10.13;68.06
71384;BME280;61466;52.166;5.004;2023-01-31T11:53:44;102080.94;;;10.15;67.93
71384;BME280;61466;52.166;5.004;2023-01-31T11:58:38;102061.97;;;10.05;68.02
71384;BME280;61466;52.166;5.004;2023-01-31T12:01:16;102073.47;;;10.17;67.79
71384;BME280;61466;52.166;5.004;2023-01-31T12:03:46;102076.28;;;10.22;67.82
71384;BME280;61466;52.166;5.004;2023-01-31T12:06:26;102067.19;;;10.23;67.65
71384;BME280;61466;52.166;5.004;2023-01-31T12:08:53;102066.75;;;10.27;67.56
71384;BME280;61466;52.166;5.004;2023-01-31T12:13:49;102056.19;;;10.32;67.72
71384;BME280;61466;52.166;5.004;2023-01-31T12:16:24;102052.38;;;10.39;67.80
71384;BME280;61466;52.166;5.004;2023-01-31T12:24:43;102035.84;;;10.54;67.40
71384;BME280;61466;52.166;5.004;2023-01-31T12:27:33;102044.09;;;10.53;67.17
71384;BME280;61466;52.166;5.004;2023-01-31T12:41:38;102042.94;;;11.01;66.41
71384;BME280;61466;52.166;5.004;2023-01-31T13:04:03;102016.56;;;11.21;65.74
71384;BME280;61466;52.166;5.004;2023-01-31T13:06:37;102002.34;;;11.21;65.44
71384;BME280;61466;52.166;5.004;2023-01-31T13:09:25;101984.75;;;11.25;65.35
71384;BME280;61466;52.166;5.004;2023-01-31T13:12:17;101999.03;;;11.31;65.23
71384;BME280;61466;52.166;5.004;2023-01-31T13:14:44;102001.13;;;11.28;65.34
71384;BME280;61466;52.166;5.004;2023-01-31T13:17:13;102012.84;;;11.39;65.06
71384;BME280;61466;52.166;5.004;2023-01-31T13:19:51;102009.44;;;11.44;65.27
71384;BME280;61466;52.166;5.004;2023-01-31T13:24:46;102010.75;;;11.41;65.17
71384;BME280;61466;52.166;5.004;2023-01-31T13:27:22;102006.75;;;11.44;64.89
71384;BME280;61466;52.166;5.004;2023-01-31T13:30:04;102009.69;;;11.42;65.13
71384;BME280;61466;52.166;5.004;2023-01-31T13:32:36;102000.59;;;11.43;64.99
71384;BME280;61466;52.166;5.004;2023-01-31T13:35:26;102005.16;;;11.43;64.93
71384;BME280;61466;52.166;5.004;2023-01-31T13:37:58;102005.22;;;11.48;64.97
71384;BME280;61466;52.166;5.004;2023-01-31T13:40:27;102007.81;;;11.43;65.04
71384;BME280;61466;52.166;5.004;2023-01-31T13:42:55;102000.13;;;11.46;64.96
71384;BME280;61466;52.166;5.004;2023-01-31T13:45:29;102014.91;;;11.49;65.10
71384;BME280;61466;52.166;5.004;2023-01-31T13:48:03;102009.22;;;11.45;65.18
71384;BME280;61466;52.166;5.004;2023-01-31T13:53:14;102027.47;;;11.48;65.19
71384;BME280;61466;52.166;5.004;2023-01-31T13:55:45;102032.44;;;11.57;64.98
71384;BME280;61466;52.166;5.004;2023-01-31T13:58:18;102031.06;;;11.54;64.68
71384;BME280;61466;52.166;5.004;2023-01-31T14:01:03;102037.78;;;11.57;64.48
71384;BME280;61466;52.166;5.004;2023-01-31T14:11:56;102071.59;;;11.58;64.03
71384;BME280;61466;52.166;5.004;2023-01-31T14:16:54;102065.09;;;11.54;63.71
71384;BME280;61466;52.166;5.004;2023-01-31T14:27:36;102071.59;;;11.58;63.19
71384;BME280;61466;52.166;5.004;2023-01-31T14:32:48;102078.50;;;11.54;62.68
71384;BME280;61466;52.166;5.004;2023-01-31T14:35:34;102080.03;;;11.50;63.18
71384;BME280;61466;52.166;5.004;2023-01-31T14:49:43;102093.59;;;11.31;63.21
71384;BME280;61466;52.166;5.004;2023-01-31T14:55:21;102098.78;;;11.21;63.31
71384;BME280;61466;52.166;5.004;2023-01-31T14:57:52;102105.66;;;11.17;63.31
71384;BME280;61466;52.166;5.004;2023-01-31T15:00:33;102110.44;;;11.15;63.43
71384;BME280;61466;52.166;5.004;2023-01-31T15:03:25;102113.00;;;11.10;63.45
71384;BME280;61466;52.166;5.004;2023-01-31T15:06:23;102100.00;;;11.01;63.35
71384;BME280;61466;52.166;5.004;2023-01-31T15:11:50;102099.59;;;11.10;63.46
71384;BME280;61466;52.166;5.004;2023-01-31T15:16:57;102100.53;;;11.15;62.88
71384;BME280;61466;52.166;5.004;2023-01-31T15:19:24;102104.72;;;11.11;61.98
71384;BME280;61466;52.166;5.004;2023-01-31T15:21:56;102104.50;;;11.13;61.86
71384;BME280;61466;52.166;5.004;2023-01-31T15:24:34;102099.72;;;11.15;61.44
71384;BME280;61466;52.166;5.004;2023-01-31T15:27:06;102098.34;;;11.12;61.42
71384;BME280;61466;52.166;5.004;2023-01-31T15:32:20;102109.63;;;11.02;61.28
71384;BME280;61466;52.166;5.004;2023-01-31T15:34:58;102116.97;;;11.07;61.50
71384;BME280;61466;52.166;5.004;2023-01-31T15:37:30;102120.13;;;11.04;61.59
71384;BME280;61466;52.166;5.004;2023-01-31T15:40:19;102134.09;;;11.06;61.84
71384;BME280;61466;52.166;5.004;2023-01-31T15:42:45;102119.88;;;11.05;61.78